Wetterdaten: Woche 30.06.14 - 06.07.14 (KW27)
Datum Zeit Temp. A. Feuchte A. Luftdruck Regen Wind Richtung Sonnenschein ET UV Solar Taupunkt Windchill Windben
30.06.2014 00:00 13,0 C 96 % 1010,3 hPa 0,0 l/m 0,6 km/h (0 Bft) W-SW 0,00 h 0,000 mm 0,0 UV-I 0 W/m 12,4 C 13,0 C 1,7 km/h (1 Bft)
30.06.2014 01:00 12,6 C 97 % 1010,4 hPa 0,0 l/m 0,2 km/h (0 Bft) S-SW 0,00 h 0,000 mm 0,0 UV-I 0 W/m 12,0 C 12,6 C 0,6 km/h (0 Bft)
30.06.2014 02:00 12,2 C 97 % 1010,3 hPa 0,0 l/m 0,4 km/h (0 Bft) W 0,00 h 0,000 mm 0,0 UV-I 0 W/m 11,7 C 12,2 C 1,4 km/h (1 Bft)
30.06.2014 03:00 12,1 C 97 % 1010,3 hPa 0,0 l/m 0,8 km/h (0 Bft) W 0,00 h 0,000 mm 0,0 UV-I 0 W/m 11,5 C 12,1 C 2,6 km/h (1 Bft)
30.06.2014 04:00 11,7 C 96 % 1010,5 hPa 0,0 l/m 1,0 km/h (0 Bft) W-SW 0,00 h 0,000 mm 0,0 UV-I 0 W/m 11,1 C 11,7 C 2,8 km/h (1 Bft)
30.06.2014 05:00 11,4 C 96 % 1010,5 hPa 0,0 l/m 2,1 km/h (1 Bft) W 0,05 h 0,000 mm 0,0 UV-I 18 W/m 10,8 C 11,4 C 4,3 km/h (1 Bft)
30.06.2014 06:00 11,4 C 96 % 1011,1 hPa 0,0 l/m 1,7 km/h (1 Bft) W-SW 0,58 h 0,000 mm 0,0 UV-I 63 W/m 10,8 C 11,4 C 3,7 km/h (1 Bft)
30.06.2014 07:00 11,7 C 95 % 1011,5 hPa 0,0 l/m 3,7 km/h (1 Bft) W-SW 1,00 h 0,025 mm 0,5 UV-I 81 W/m 10,9 C 11,7 C 6,0 km/h (2 Bft)
30.06.2014 08:00 12,6 C 92 % 1012,2 hPa 0,0 l/m 3,6 km/h (1 Bft) W-SW 1,00 h 0,051 mm 1,1 UV-I 212 W/m 11,3 C 12,6 C 6,0 km/h (2 Bft)
30.06.2014 09:00 13,7 C 85 % 1012,4 hPa 0,0 l/m 5,6 km/h (1 Bft) W-SW 1,00 h 0,102 mm 2,1 UV-I 359 W/m 11,2 C 13,5 C 9,3 km/h (2 Bft)
30.06.2014 10:00 15,2 C 77 % 1012,5 hPa 0,0 l/m 8,2 km/h (2 Bft) W-SW 1,00 h 0,203 mm 4,1 UV-I 537 W/m 11,2 C 14,1 C 12,7 km/h (3 Bft)
30.06.2014 11:00 16,2 C 71 % 1012,6 hPa 0,0 l/m 8,7 km/h (2 Bft) W-SW 1,00 h 0,330 mm 3,8 UV-I 330 W/m 10,9 C 15,1 C 13,7 km/h (3 Bft)
30.06.2014 12:00 16,6 C 69 % 1012,7 hPa 0,0 l/m 10,3 km/h (2 Bft) W 1,00 h 0,279 mm 3,8 UV-I 457 W/m 10,8 C 14,8 C 15,3 km/h (3 Bft)
30.06.2014 13:00 16,7 C 68 % 1012,6 hPa 2,4 l/m 10,0 km/h (2 Bft) W-SW 1,00 h 0,279 mm 4,0 UV-I 450 W/m 10,7 C 15,0 C 15,0 km/h (3 Bft)
30.06.2014 14:00 14,6 C 87 % 1012,8 hPa 2,4 l/m 3,2 km/h (1 Bft) O-NO 0,92 h 0,279 mm 2,3 UV-I 231 W/m 12,5 C 14,1 C 5,6 km/h (1 Bft)
30.06.2014 15:00 13,7 C 84 % 1013,6 hPa 0,2 l/m 7,3 km/h (2 Bft) W 1,00 h 0,152 mm 1,6 UV-I 210 W/m 11,1 C 12,6 C 11,4 km/h (2 Bft)
30.06.2014 16:00 15,7 C 76 % 1013,5 hPa 0,0 l/m 3,6 km/h (1 Bft) W 1,00 h 0,127 mm 2,5 UV-I 438 W/m 11,4 C 15,7 C 6,0 km/h (2 Bft)
30.06.2014 17:00 14,6 C 76 % 1013,7 hPa 0,4 l/m 7,5 km/h (2 Bft) W 0,80 h 0,229 mm 1,1 UV-I 130 W/m 10,4 C 13,5 C 12,2 km/h (2 Bft)
30.06.2014 18:00 14,8 C 77 % 1013,8 hPa 0,0 l/m 3,1 km/h (1 Bft) S 0,78 h 0,102 mm 0,9 UV-I 58 W/m 10,8 C 14,8 C 5,6 km/h (1 Bft)
30.06.2014 19:00 14,9 C 76 % 1014,3 hPa 0,4 l/m 6,1 km/h (2 Bft) W-NW 0,63 h 0,051 mm 0,0 UV-I 68 W/m 10,7 C 14,4 C 9,3 km/h (2 Bft)
30.06.2014 20:00 14,5 C 78 % 1014,8 hPa 0,0 l/m 2,3 km/h (1 Bft) W-NW 0,00 h 0,051 mm 0,0 UV-I 31 W/m 10,7 C 14,5 C 4,3 km/h (1 Bft)
30.06.2014 21:00 13,7 C 78 % 1015,5 hPa 0,0 l/m 3,8 km/h (1 Bft) W-NW 0,00 h 0,025 mm 0,0 UV-I 7 W/m 9,9 C 13,7 C 6,3 km/h (2 Bft)
30.06.2014 22:00 12,3 C 82 % 1016,3 hPa 0,0 l/m 3,8 km/h (1 Bft) W-NW 0,00 h 0,025 mm 0,0 UV-I 0 W/m 9,2 C 12,2 C 6,4 km/h (2 Bft)
30.06.2014 23:00 10,7 C 88 % 1016,8 hPa 0,0 l/m 1,5 km/h (1 Bft) N 0,00 h 0,025 mm 0,0 UV-I 0 W/m 8,8 C 10,7 C 3,0 km/h (1 Bft)
01.07.2014 00:00 9,5 C 92 % 1017,1 hPa 0,0 l/m 1,0 km/h (0 Bft) N 0,00 h 0,000 mm 0,0 UV-I 0 W/m 8,3 C 9,5 C 2,1 km/h (1 Bft)
01.07.2014 01:00 8,3 C 94 % 1017,2 hPa 0,0 l/m 0,3 km/h (0 Bft) O-SO 0,00 h 0,000 mm 0,0 UV-I 0 W/m 7,4 C 8,3 C 0,7 km/h (0 Bft)
01.07.2014 02:00 7,8 C 95 % 1017,5 hPa 0,0 l/m 0,7 km/h (0 Bft) O-SO 0,00 h 0,000 mm 0,0 UV-I 0 W/m 7,1 C 7,8 C 1,8 km/h (1 Bft)
01.07.2014 03:00 6,8 C 95 % 1017,5 hPa 0,0 l/m 0,6 km/h (0 Bft) O 0,00 h 0,000 mm 0,0 UV-I 0 W/m 6,1 C 6,8 C 1,3 km/h (1 Bft)
01.07.2014 04:00 6,2 C 96 % 1017,6 hPa 0,0 l/m 0,5 km/h (0 Bft) O-NO 0,00 h 0,000 mm 0,0 UV-I 0 W/m 5,6 C 6,2 C 1,3 km/h (1 Bft)
01.07.2014 05:00 5,9 C 96 % 1018,1 hPa 0,0 l/m 0,1 km/h (0 Bft) O-NO 0,00 h 0,000 mm 0,0 UV-I 12 W/m 5,3 C 5,9 C 0,4 km/h (0 Bft)
01.07.2014 06:00 6,1 C 96 % 1018,6 hPa 0,0 l/m 0,1 km/h (0 Bft) O 0,00 h 0,000 mm 0,0 UV-I 27 W/m 5,6 C 6,1 C 0,2 km/h (0 Bft)
01.07.2014 07:00 8,6 C 93 % 1018,8 hPa 0,0 l/m 0,1 km/h (0 Bft) S-SO 0,52 h 0,000 mm 0,8 UV-I 172 W/m 7,5 C 8,6 C 0,2 km/h (0 Bft)
01.07.2014 08:00 11,8 C 85 % 1018,8 hPa 0,0 l/m 0,7 km/h (0 Bft) S 1,00 h 0,076 mm 1,5 UV-I 449 W/m 9,4 C 11,8 C 1,8 km/h (1 Bft)
01.07.2014 09:00 14,2 C 74 % 1018,8 hPa 0,0 l/m 2,1 km/h (1 Bft) NW 1,00 h 0,229 mm 3,1 UV-I 630 W/m 9,6 C 14,2 C 4,0 km/h (1 Bft)
01.07.2014 10:00 15,6 C 66 % 1018,6 hPa 0,0 l/m 3,3 km/h (1 Bft) W-NW 1,00 h 0,330 mm 3,2 UV-I 510 W/m 9,4 C 15,5 C 5,9 km/h (2 Bft)
01.07.2014 11:00 16,4 C 63 % 1018,4 hPa 0,0 l/m 3,6 km/h (1 Bft) W 1,00 h 0,279 mm 4,4 UV-I 545 W/m 9,1 C 16,1 C 6,4 km/h (2 Bft)
01.07.2014 12:00 18,2 C 50 % 1018,2 hPa 0,0 l/m 7,8 km/h (2 Bft) NW 1,00 h 0,330 mm 5,0 UV-I 682 W/m 7,6 C 17,3 C 12,3 km/h (3 Bft)
01.07.2014 13:00 18,8 C 48 % 1017,9 hPa 0,0 l/m 7,0 km/h (2 Bft) W-NW 1,00 h 0,432 mm 5,5 UV-I 672 W/m 7,4 C 18,2 C 11,0 km/h (2 Bft)
01.07.2014 14:00 18,9 C 46 % 1017,7 hPa 0,0 l/m 5,8 km/h (1 Bft) W-NW 1,00 h 0,458 mm 4,7 UV-I 616 W/m 7,1 C 18,5 C 8,9 km/h (2 Bft)
01.07.2014 15:00 20,1 C 43 % 1017,2 hPa 0,0 l/m 7,1 km/h (2 Bft) W-NW 1,00 h 0,406 mm 4,3 UV-I 671 W/m 7,0 C 19,5 C 11,2 km/h (2 Bft)
01.07.2014 16:00 19,9 C 41 % 1017,0 hPa 0,0 l/m 7,3 km/h (2 Bft) W-NW 1,00 h 0,432 mm 2,9 UV-I 441 W/m 6,3 C 19,4 C 11,4 km/h (2 Bft)
01.07.2014 17:00 19,7 C 41 % 1016,9 hPa 0,0 l/m 6,9 km/h (2 Bft) W-NW 1,00 h 0,330 mm 1,8 UV-I 320 W/m 6,2 C 19,2 C 10,8 km/h (2 Bft)
01.07.2014 18:00 18,7 C 44 % 1016,9 hPa 0,0 l/m 4,7 km/h (1 Bft) W-NW 1,00 h 0,254 mm 0,8 UV-I 107 W/m 6,2 C 18,6 C 7,3 km/h (2 Bft)
01.07.2014 19:00 18,3 C 46 % 1017,0 hPa 0,0 l/m 1,8 km/h (1 Bft) NW 1,00 h 0,102 mm 0,5 UV-I 83 W/m 6,5 C 18,3 C 3,4 km/h (1 Bft)
01.07.2014 20:00 17,9 C 46 % 1017,2 hPa 0,0 l/m 1,8 km/h (1 Bft) N 0,25 h 0,076 mm 0,0 UV-I 43 W/m 6,2 C 17,9 C 3,5 km/h (1 Bft)
01.07.2014 21:00 15,6 C 58 % 1017,7 hPa 0,0 l/m 0,6 km/h (0 Bft) N 0,00 h 0,051 mm 0,0 UV-I 8 W/m 7,2 C 15,6 C 1,6 km/h (1 Bft)
01.07.2014 22:00 13,3 C 76 % 1017,9 hPa 0,0 l/m 0,1 km/h (0 Bft) O-NO 0,00 h 0,025 mm 0,0 UV-I 0 W/m 9,1 C 13,3 C 0,4 km/h (0 Bft)
01.07.2014 23:00 11,4 C 84 % 1018,2 hPa 0,0 l/m 0,0 km/h (0 Bft) N 0,00 h 0,025 mm 0,0 UV-I 0 W/m 8,9 C 11,4 C 0,0 km/h (0 Bft)
02.07.2014 00:00 10,0 C 89 % 1018,4 hPa 0,0 l/m 0,1 km/h (0 Bft) O-NO 0,00 h 0,000 mm 0,0 UV-I 0 W/m 8,3 C 10,0 C 0,4 km/h (0 Bft)
02.07.2014 01:00 9,2 C 89 % 1018,5 hPa 0,0 l/m 0,1 km/h (0 Bft) O-NO 0,00 h 0,000 mm 0,0 UV-I 0 W/m 7,5 C 9,2 C 0,5 km/h (0 Bft)
02.07.2014 02:00 8,0 C 92 % 1018,5 hPa 0,0 l/m 0,0 km/h (0 Bft) N 0,00 h 0,000 mm 0,0 UV-I 0 W/m 6,8 C 8,0 C 0,1 km/h (0 Bft)
02.07.2014 03:00 7,2 C 93 % 1018,4 hPa 0,0 l/m 0,0 km/h (0 Bft) N 0,00 h 0,000 mm 0,0 UV-I 0 W/m 6,1 C 7,2 C 0,2 km/h (0 Bft)
02.07.2014 04:00 6,5 C 93 % 1018,4 hPa 0,0 l/m 0,0 km/h (0 Bft) O-NO 0,00 h 0,000 mm 0,0 UV-I 0 W/m 5,5 C 6,5 C 0,2 km/h (0 Bft)
02.07.2014 05:00 6,2 C 94 % 1018,5 hPa 0,0 l/m 0,0 km/h (0 Bft) N 0,00 h 0,000 mm 0,0 UV-I 13 W/m 5,3 C 6,2 C 0,1 km/h (0 Bft)
02.07.2014 06:00 6,8 C 93 % 1018,7 hPa 0,0 l/m 0,1 km/h (0 Bft) O-NO 0,33 h 0,000 mm 0,5 UV-I 38 W/m 5,7 C 6,8 C 0,5 km/h (0 Bft)
02.07.2014 07:00 9,4 C 87 % 1018,9 hPa 0,0 l/m 0,1 km/h (0 Bft) S-SO 1,00 h 0,025 mm 0,8 UV-I 177 W/m 7,3 C 9,4 C 0,6 km/h (0 Bft)
02.07.2014 08:00 13,5 C 77 % 1019,0 hPa 0,0 l/m 1,1 km/h (1 Bft) S-SO 1,00 h 0,076 mm 1,6 UV-I 366 W/m 9,6 C 13,5 C 2,5 km/h (1 Bft)
02.07.2014 09:00 16,6 C 65 % 1019,2 hPa 0,0 l/m 2,0 km/h (1 Bft) W-SW 1,00 h 0,178 mm 2,8 UV-I 492 W/m 9,9 C 16,6 C 4,0 km/h (1 Bft)
02.07.2014 10:00 19,2 C 52 % 1019,1 hPa 0,0 l/m 2,7 km/h (1 Bft) N 1,00 h 0,279 mm 4,2 UV-I 712 W/m 8,9 C 19,1 C 5,1 km/h (1 Bft)
02.07.2014 11:00 20,5 C 45 % 1019,1 hPa 0,0 l/m 4,6 km/h (1 Bft) NW 1,00 h 0,406 mm 4,6 UV-I 659 W/m 8,1 C 20,3 C 7,4 km/h (2 Bft)
02.07.2014 12:00 20,4 C 45 % 1018,9 hPa 0,0 l/m 4,4 km/h (1 Bft) W-SW 1,00 h 0,432 mm 4,8 UV-I 593 W/m 7,9 C 20,3 C 7,5 km/h (2 Bft)
02.07.2014 13:00 21,2 C 40 % 1018,8 hPa 0,0 l/m 7,1 km/h (2 Bft) W 1,00 h 0,381 mm 3,7 UV-I 436 W/m 6,9 C 20,7 C 10,7 km/h (2 Bft)
02.07.2014 14:00 21,3 C 40 % 1018,8 hPa 0,0 l/m 6,5 km/h (2 Bft) W-NW 1,00 h 0,331 mm 3,5 UV-I 423 W/m 7,0 C 20,8 C 10,3 km/h (2 Bft)
02.07.2014 15:00 21,5 C 35 % 1018,9 hPa 0,0 l/m 7,4 km/h (2 Bft) W 1,00 h 0,305 mm 3,0 UV-I 423 W/m 5,4 C 21,0 C 11,1 km/h (2 Bft)
02.07.2014 16:00 21,6 C 36 % 1018,9 hPa 0,0 l/m 6,8 km/h (2 Bft) W-NW 1,00 h 0,330 mm 2,3 UV-I 363 W/m 5,8 C 21,2 C 10,6 km/h (2 Bft)
02.07.2014 17:00 21,3 C 36 % 1019,0 hPa 0,0 l/m 8,0 km/h (2 Bft) W-NW 1,00 h 0,279 mm 1,5 UV-I 275 W/m 5,6 C 20,6 C 12,0 km/h (2 Bft)
02.07.2014 18:00 20,9 C 36 % 1019,1 hPa 0,0 l/m 6,2 km/h (2 Bft) W-NW 1,00 h 0,254 mm 0,9 UV-I 169 W/m 5,4 C 20,6 C 9,9 km/h (2 Bft)
02.07.2014 19:00 20,3 C 41 % 1019,5 hPa 0,0 l/m 4,2 km/h (1 Bft) N-NO 0,80 h 0,178 mm 0,5 UV-I 92 W/m 6,6 C 20,3 C 6,7 km/h (2 Bft)
02.07.2014 20:00 18,7 C 50 % 1020,2 hPa 0,0 l/m 4,9 km/h (1 Bft) N 0,05 h 0,102 mm 0,0 UV-I 31 W/m 8,0 C 18,6 C 7,7 km/h (2 Bft)
02.07.2014 21:00 17,2 C 51 % 1021,0 hPa 0,0 l/m 5,6 km/h (1 Bft) N 0,00 h 0,051 mm 0,0 UV-I 9 W/m 7,0 C 16,9 C 8,7 km/h (2 Bft)
02.07.2014 22:00 15,0 C 60 % 1021,8 hPa 0,0 l/m 0,3 km/h (0 Bft) N-NO 0,00 h 0,051 mm 0,0 UV-I 0 W/m 7,2 C 15,0 C 0,9 km/h (0 Bft)
02.07.2014 23:00 13,2 C 71 % 1022,6 hPa 0,0 l/m 0,2 km/h (0 Bft) SO 0,00 h 0,025 mm 0,0 UV-I 0 W/m 8,0 C 13,2 C 0,5 km/h (0 Bft)
03.07.2014 00:00 11,6 C 81 % 1023,2 hPa 0,0 l/m 0,1 km/h (0 Bft) O-NO 0,00 h 0,025 mm 0,0 UV-I 0 W/m 8,5 C 11,6 C 0,5 km/h (0 Bft)
03.07.2014 01:00 10,1 C 86 % 1023,4 hPa 0,0 l/m 0,1 km/h (0 Bft) NO 0,00 h 0,025 mm 0,0 UV-I 0 W/m 7,9 C 10,1 C 0,5 km/h (0 Bft)
03.07.2014 02:00 9,0 C 89 % 1023,6 hPa 0,0 l/m 0,1 km/h (0 Bft) NO 0,00 h 0,000 mm 0,0 UV-I 0 W/m 7,3 C 9,0 C 0,8 km/h (0 Bft)
03.07.2014 03:00 8,0 C 92 % 1023,7 hPa 0,0 l/m 0,2 km/h (0 Bft) O 0,00 h 0,000 mm 0,0 UV-I 0 W/m 6,7 C 8,0 C 0,8 km/h (0 Bft)
03.07.2014 04:00 7,6 C 92 % 1023,6 hPa 0,0 l/m 0,1 km/h (0 Bft) O 0,00 h 0,000 mm 0,0 UV-I 0 W/m 6,3 C 7,6 C 0,2 km/h (0 Bft)
03.07.2014 05:00 7,0 C 93 % 1024,1 hPa 0,0 l/m 0,0 km/h (0 Bft) N 0,00 h 0,000 mm 0,0 UV-I 14 W/m 6,0 C 7,0 C 0,1 km/h (0 Bft)
03.07.2014 06:00 7,9 C 93 % 1024,2 hPa 0,0 l/m 0,0 km/h (0 Bft) N 0,52 h 0,000 mm 0,0 UV-I 58 W/m 6,9 C 7,9 C 0,4 km/h (0 Bft)
03.07.2014 07:00 10,3 C 93 % 1024,5 hPa 0,0 l/m 0,6 km/h (0 Bft) SO 1,00 h 0,025 mm 0,6 UV-I 103 W/m 9,1 C 10,3 C 1,7 km/h (1 Bft)
03.07.2014 08:00 12,4 C 94 % 1024,6 hPa 0,0 l/m 3,0 km/h (1 Bft) SW 1,00 h 0,051 mm 0,9 UV-I 162 W/m 11,4 C 12,4 C 5,4 km/h (1 Bft)
03.07.2014 09:00 14,4 C 88 % 1024,8 hPa 0,0 l/m 5,1 km/h (1 Bft) S 1,00 h 0,076 mm 2,5 UV-I 504 W/m 12,5 C 14,2 C 8,2 km/h (2 Bft)
03.07.2014 10:00 17,7 C 74 % 1024,6 hPa 0,0 l/m 5,4 km/h (1 Bft) S 1,00 h 0,254 mm 4,5 UV-I 712 W/m 13,1 C 17,5 C 8,1 km/h (2 Bft)
03.07.2014 11:00 20,5 C 58 % 1024,4 hPa 0,0 l/m 6,3 km/h (2 Bft) S 1,00 h 0,406 mm 6,0 UV-I 829 W/m 11,9 C 20,1 C 10,0 km/h (2 Bft)
03.07.2014 12:00 22,2 C 45 % 1024,3 hPa 0,0 l/m 9,0 km/h (2 Bft) SW 1,00 h 0,508 mm 6,7 UV-I 866 W/m 9,8 C 21,4 C 14,7 km/h (3 Bft)
03.07.2014 13:00 23,0 C 44 % 1024,1 hPa 0,0 l/m 8,8 km/h (2 Bft) SW 1,00 h 0,584 mm 6,3 UV-I 794 W/m 10,0 C 22,2 C 13,5 km/h (3 Bft)
03.07.2014 14:00 23,5 C 44 % 1023,5 hPa 0,0 l/m 8,4 km/h (2 Bft) SW 1,00 h 0,533 mm 5,9 UV-I 753 W/m 10,5 C 22,9 C 13,7 km/h (3 Bft)
03.07.2014 15:00 24,4 C 41 % 1023,1 hPa 0,0 l/m 7,4 km/h (2 Bft) W-SW 1,00 h 0,533 mm 4,9 UV-I 686 W/m 10,2 C 24,0 C 11,5 km/h (2 Bft)
03.07.2014 16:00 24,6 C 38 % 1022,5 hPa 0,0 l/m 8,1 km/h (2 Bft) SW 1,00 h 0,483 mm 3,6 UV-I 620 W/m 9,5 C 24,1 C 12,5 km/h (3 Bft)
03.07.2014 17:00 24,7 C 36 % 1022,0 hPa 0,0 l/m 7,4 km/h (2 Bft) W-SW 1,00 h 0,457 mm 2,1 UV-I 352 W/m 8,4 C 24,3 C 11,7 km/h (2 Bft)
03.07.2014 18:00 24,2 C 36 % 1021,5 hPa 0,0 l/m 7,0 km/h (2 Bft) S 1,00 h 0,305 mm 1,1 UV-I 71 W/m 8,0 C 23,9 C 10,6 km/h (2 Bft)
03.07.2014 19:00 23,8 C 36 % 1021,2 hPa 0,0 l/m 4,5 km/h (1 Bft) SW 0,07 h 0,127 mm 0,0 UV-I 39 W/m 7,8 C 23,8 C 7,6 km/h (2 Bft)
03.07.2014 20:00 22,7 C 40 % 1021,0 hPa 0,0 l/m 4,1 km/h (1 Bft) S 0,00 h 0,076 mm 0,0 UV-I 20 W/m 8,4 C 22,7 C 6,1 km/h (2 Bft)
03.07.2014 21:00 20,5 C 48 % 1021,1 hPa 0,0 l/m 6,3 km/h (2 Bft) S-SO 0,00 h 0,051 mm 0,0 UV-I 7 W/m 9,1 C 20,4 C 9,1 km/h (2 Bft)
03.07.2014 22:00 19,0 C 54 % 1021,2 hPa 0,0 l/m 3,2 km/h (1 Bft) S-SO 0,00 h 0,051 mm 0,0 UV-I 0 W/m 9,3 C 19,0 C 5,3 km/h (1 Bft)
03.07.2014 23:00 17,0 C 62 % 1021,2 hPa 0,0 l/m 0,1 km/h (0 Bft) S-SO 0,00 h 0,051 mm 0,0 UV-I 0 W/m 9,6 C 17,0 C 0,9 km/h (0 Bft)
04.07.2014 00:00 14,6 C 73 % 1021,1 hPa 0,0 l/m 0,0 km/h (0 Bft) N 0,00 h 0,025 mm 0,0 UV-I 0 W/m 9,8 C 14,6 C 0,0 km/h (0 Bft)
04.07.2014 01:00 12,8 C 82 % 1020,9 hPa 0,0 l/m 0,0 km/h (0 Bft) N 0,00 h 0,025 mm 0,0 UV-I 0 W/m 9,9 C 12,8 C 0,0 km/h (0 Bft)
04.07.2014 02:00 11,5 C 87 % 1020,7 hPa 0,0 l/m 0,0 km/h (0 Bft) N 0,00 h 0,025 mm 0,0 UV-I 0 W/m 9,4 C 11,5 C 0,0 km/h (0 Bft)
04.07.2014 03:00 10,6 C 89 % 1020,3 hPa 0,0 l/m 0,0 km/h (0 Bft) N 0,00 h 0,000 mm 0,0 UV-I 0 W/m 8,8 C 10,6 C 0,3 km/h (0 Bft)
04.07.2014 04:00 10,0 C 90 % 1019,8 hPa 0,0 l/m 0,1 km/h (0 Bft) SO 0,00 h 0,000 mm 0,0 UV-I 0 W/m 8,5 C 10,0 C 0,4 km/h (0 Bft)
04.07.2014 05:00 9,4 C 91 % 1019,4 hPa 0,0 l/m 0,0 km/h (0 Bft) N 0,00 h 0,000 mm 0,0 UV-I 10 W/m 8,0 C 9,4 C 0,3 km/h (0 Bft)
04.07.2014 06:00 10,6 C 89 % 1019,3 hPa 0,0 l/m 0,2 km/h (0 Bft) W 0,00 h 0,000 mm 0,0 UV-I 22 W/m 8,8 C 10,6 C 0,9 km/h (0 Bft)
04.07.2014 07:00 13,6 C 81 % 1018,8 hPa 0,0 l/m 0,6 km/h (0 Bft) W 0,53 h 0,000 mm 1,0 UV-I 181 W/m 10,3 C 13,6 C 2,0 km/h (1 Bft)
04.07.2014 08:00 18,4 C 67 % 1018,0 hPa 0,0 l/m 0,7 km/h (0 Bft) N-NW 1,00 h 0,102 mm 1,9 UV-I 460 W/m 12,1 C 18,4 C 1,8 km/h (1 Bft)
04.07.2014 09:00 22,2 C 48 % 1017,1 hPa 0,0 l/m 6,9 km/h (2 Bft) SO 1,00 h 0,254 mm 3,2 UV-I 615 W/m 10,5 C 21,5 C 11,8 km/h (2 Bft)
04.07.2014 10:00 23,4 C 39 % 1016,4 hPa 0,0 l/m 11,9 km/h (2 Bft) SO 1,00 h 0,432 mm 4,9 UV-I 753 W/m 8,7 C 22,1 C 19,6 km/h (3 Bft)
04.07.2014 11:00 24,6 C 35 % 1015,2 hPa 0,0 l/m 10,5 km/h (2 Bft) SO 1,00 h 0,559 mm 5,3 UV-I 694 W/m 8,2 C 23,6 C 17,3 km/h (3 Bft)
04.07.2014 12:00 25,7 C 32 % 1014,4 hPa 0,0 l/m 9,7 km/h (2 Bft) SO 1,00 h 0,533 mm 6,6 UV-I 793 W/m 7,6 C 25,0 C 16,1 km/h (3 Bft)
04.07.2014 13:00 26,9 C 29 % 1013,2 hPa 0,0 l/m 8,3 km/h (2 Bft) SO 1,00 h 0,610 mm 7,3 UV-I 867 W/m 7,4 C 26,5 C 14,2 km/h (3 Bft)
04.07.2014 14:00 28,0 C 28 % 1011,8 hPa 0,0 l/m 8,4 km/h (2 Bft) O-SO 1,00 h 0,660 mm 6,4 UV-I 807 W/m 7,7 C 27,6 C 14,7 km/h (3 Bft)
04.07.2014 15:00 28,3 C 27 % 1011,0 hPa 0,0 l/m 8,9 km/h (2 Bft) O-SO 1,00 h 0,635 mm 4,8 UV-I 650 W/m 7,3 C 28,0 C 14,9 km/h (3 Bft)
04.07.2014 16:00 28,9 C 26 % 1010,1 hPa 0,0 l/m 8,9 km/h (2 Bft) SO 1,00 h 0,533 mm 3,6 UV-I 571 W/m 7,7 C 28,5 C 14,8 km/h (3 Bft)
04.07.2014 17:00 28,3 C 29 % 1009,2 hPa 0,0 l/m 7,7 km/h (2 Bft) SO 1,00 h 0,483 mm 2,0 UV-I 354 W/m 8,3 C 28,0 C 12,7 km/h (3 Bft)
04.07.2014 18:00 27,4 C 32 % 1008,5 hPa 0,0 l/m 5,9 km/h (2 Bft) SO 1,00 h 0,330 mm 0,9 UV-I 168 W/m 9,2 C 27,3 C 10,4 km/h (2 Bft)
04.07.2014 19:00 27,0 C 34 % 1007,9 hPa 0,0 l/m 4,2 km/h (1 Bft) SO 1,00 h 0,178 mm 0,6 UV-I 106 W/m 9,6 C 26,9 C 8,4 km/h (2 Bft)
04.07.2014 20:00 25,5 C 36 % 1007,6 hPa 0,0 l/m 1,2 km/h (1 Bft) SO 0,17 h 0,127 mm 0,0 UV-I 33 W/m 9,3 C 25,5 C 3,3 km/h (1 Bft)
04.07.2014 21:00 23,6 C 43 % 1007,5 hPa 0,0 l/m 0,9 km/h (0 Bft) O 0,00 h 0,051 mm 0,0 UV-I 6 W/m 10,1 C 23,6 C 2,3 km/h (1 Bft)
04.07.2014 22:00 22,0 C 50 % 1007,3 hPa 0,0 l/m 2,5 km/h (1 Bft) O-NO 0,00 h 0,025 mm 0,0 UV-I 0 W/m 11,0 C 22,0 C 4,9 km/h (1 Bft)
04.07.2014 23:00 20,9 C 55 % 1007,1 hPa 0,0 l/m 1,5 km/h (1 Bft) O 0,00 h 0,051 mm 0,0 UV-I 0 W/m 11,4 C 20,9 C 3,6 km/h (1 Bft)
05.07.2014 00:00 20,7 C 57 % 1006,8 hPa 0,0 l/m 1,8 km/h (1 Bft) O 0,00 h 0,051 mm 0,0 UV-I 0 W/m 11,8 C 20,7 C 3,9 km/h (1 Bft)
05.07.2014 01:00 19,8 C 64 % 1006,6 hPa 0,0 l/m 0,1 km/h (0 Bft) O-SO 0,00 h 0,051 mm 0,0 UV-I 0 W/m 12,8 C 19,8 C 0,6 km/h (0 Bft)
05.07.2014 02:00 19,0 C 70 % 1006,3 hPa 0,0 l/m 1,9 km/h (1 Bft) O-NO 0,00 h 0,025 mm 0,0 UV-I 0 W/m 13,5 C 19,0 C 4,0 km/h (1 Bft)
05.07.2014 03:00 18,8 C 69 % 1006,0 hPa 0,0 l/m 2,4 km/h (1 Bft) O-NO 0,00 h 0,025 mm 0,0 UV-I 0 W/m 13,0 C 18,8 C 4,7 km/h (1 Bft)
05.07.2014 04:00 18,4 C 72 % 1006,1 hPa 0,0 l/m 2,0 km/h (1 Bft) O 0,00 h 0,000 mm 0,0 UV-I 0 W/m 13,2 C 18,4 C 4,3 km/h (1 Bft)
05.07.2014 05:00 17,4 C 81 % 1006,4 hPa 0,0 l/m 2,6 km/h (1 Bft) O-NO 0,00 h 0,025 mm 0,0 UV-I 7 W/m 14,0 C 17,4 C 4,9 km/h (1 Bft)
05.07.2014 06:00 16,3 C 90 % 1006,9 hPa 0,0 l/m 2,0 km/h (1 Bft) S-SO 0,00 h 0,000 mm 0,0 UV-I 21 W/m 14,7 C 16,3 C 3,8 km/h (1 Bft)
05.07.2014 07:00 16,4 C 89 % 1007,4 hPa 0,0 l/m 2,9 km/h (1 Bft) S-SO 0,10 h 0,025 mm 0,5 UV-I 38 W/m 14,6 C 16,4 C 4,9 km/h (1 Bft)
05.07.2014 08:00 17,9 C 80 % 1007,6 hPa 0,0 l/m 5,8 km/h (2 Bft) SW 1,00 h 0,025 mm 0,9 UV-I 151 W/m 14,4 C 17,6 C 9,6 km/h (2 Bft)
05.07.2014 09:00 17,7 C 83 % 1007,9 hPa 0,0 l/m 5,6 km/h (1 Bft) S 1,00 h 0,102 mm 0,9 UV-I 114 W/m 14,7 C 17,4 C 9,1 km/h (2 Bft)
05.07.2014 10:00 18,0 C 84 % 1008,3 hPa 0,0 l/m 7,5 km/h (2 Bft) S 1,00 h 0,076 mm 2,4 UV-I 287 W/m 15,3 C 17,3 C 11,8 km/h (2 Bft)
05.07.2014 11:00 20,8 C 74 % 1008,2 hPa 0,0 l/m 9,2 km/h (2 Bft) S 1,00 h 0,178 mm 4,4 UV-I 461 W/m 15,9 C 19,8 C 14,1 km/h (3 Bft)
05.07.2014 12:00 22,6 C 65 % 1008,1 hPa 0,0 l/m 9,3 km/h (2 Bft) W-SW 1,00 h 0,356 mm 4,2 UV-I 415 W/m 15,6 C 21,7 C 14,8 km/h (3 Bft)
05.07.2014 13:00 23,1 C 60 % 1008,2 hPa 0,0 l/m 11,2 km/h (2 Bft) W-SW 1,00 h 0,356 mm 4,0 UV-I 486 W/m 14,8 C 21,9 C 16,8 km/h (3 Bft)
05.07.2014 14:00 24,4 C 53 % 1008,3 hPa 0,0 l/m 12,1 km/h (2 Bft) W-SW 1,00 h 0,356 mm 5,8 UV-I 690 W/m 14,1 C 23,1 C 19,1 km/h (3 Bft)
05.07.2014 15:00 24,7 C 51 % 1008,1 hPa 0,0 l/m 9,5 km/h (2 Bft) W-SW 1,00 h 0,508 mm 4,3 UV-I 628 W/m 14,0 C 24,0 C 14,8 km/h (3 Bft)
05.07.2014 16:00 24,2 C 52 % 1008,2 hPa 0,0 l/m 11,0 km/h (2 Bft) W-SW 1,00 h 0,432 mm 2,6 UV-I 318 W/m 13,6 C 23,2 C 17,0 km/h (3 Bft)
05.07.2014 17:00 23,6 C 54 % 1008,6 hPa 0,0 l/m 11,6 km/h (2 Bft) W-SW 1,00 h 0,305 mm 1,7 UV-I 269 W/m 13,7 C 22,3 C 18,2 km/h (3 Bft)
05.07.2014 18:00 23,4 C 56 % 1008,7 hPa 0,0 l/m 8,3 km/h (2 Bft) W-SW 0,65 h 0,254 mm 1,1 UV-I 99 W/m 14,1 C 22,8 C 12,8 km/h (3 Bft)
05.07.2014 19:00 19,6 C 79 % 1009,7 hPa 0,4 l/m 7,8 km/h (2 Bft) NW 0,43 h 0,127 mm 0,0 UV-I 44 W/m 15,7 C 18,7 C 12,2 km/h (2 Bft)
05.07.2014 20:00 18,3 C 87 % 1010,3 hPa 0,0 l/m 0,5 km/h (0 Bft) W 0,00 h 0,051 mm 0,0 UV-I 30 W/m 16,0 C 18,3 C 1,2 km/h (1 Bft)
05.07.2014 21:00 18,6 C 82 % 1011,0 hPa 0,0 l/m 3,2 km/h (1 Bft) W 0,00 h 0,025 mm 0,0 UV-I 9 W/m 15,4 C 18,6 C 5,3 km/h (1 Bft)
05.07.2014 22:00 18,2 C 84 % 1011,8 hPa 0,0 l/m 0,4 km/h (0 Bft) W 0,00 h 0,025 mm 0,0 UV-I 0 W/m 15,5 C 18,2 C 1,2 km/h (1 Bft)
05.07.2014 23:00 18,4 C 81 % 1012,1 hPa 0,0 l/m 3,7 km/h (1 Bft) SW 0,00 h 0,025 mm 0,0 UV-I 0 W/m 15,1 C 18,3 C 6,5 km/h (2 Bft)
06.07.2014 00:00 18,2 C 81 % 1012,4 hPa 0,0 l/m 2,1 km/h (1 Bft) S 0,00 h 0,025 mm 0,0 UV-I 0 W/m 14,9 C 18,2 C 4,1 km/h (1 Bft)
06.07.2014 01:00 17,5 C 84 % 1012,4 hPa 0,0 l/m 2,0 km/h (1 Bft) SW 0,00 h 0,025 mm 0,0 UV-I 0 W/m 14,8 C 17,5 C 3,7 km/h (1 Bft)
06.07.2014 02:00 17,2 C 85 % 1012,4 hPa 0,0 l/m 1,9 km/h (1 Bft) SW 0,00 h 0,025 mm 0,0 UV-I 0 W/m 14,8 C 17,2 C 4,0 km/h (1 Bft)
06.07.2014 03:00 17,2 C 86 % 1012,5 hPa 0,0 l/m 1,0 km/h (0 Bft) SW 0,00 h 0,025 mm 0,0 UV-I 0 W/m 14,8 C 17,2 C 2,5 km/h (1 Bft)
06.07.2014 04:00 17,0 C 86 % 1012,6 hPa 0,0 l/m 0,4 km/h (0 Bft) S-SW 0,00 h 0,025 mm 0,0 UV-I 0 W/m 14,7 C 17,0 C 1,7 km/h (1 Bft)
06.07.2014 05:00 16,8 C 88 % 1012,8 hPa 0,0 l/m 1,2 km/h (1 Bft) S 0,07 h 0,000 mm 0,0 UV-I 21 W/m 14,7 C 16,8 C 2,4 km/h (1 Bft)
06.07.2014 06:00 17,7 C 84 % 1012,9 hPa 0,0 l/m 4,4 km/h (1 Bft) S-SW 0,17 h 0,025 mm 0,0 UV-I 43 W/m 14,9 C 17,6 C 7,6 km/h (2 Bft)
06.07.2014 07:00 17,8 C 83 % 1013,0 hPa 0,0 l/m 2,1 km/h (1 Bft) S 0,92 h 0,025 mm 0,7 UV-I 76 W/m 15,0 C 17,8 C 4,2 km/h (1 Bft)
06.07.2014 08:00 19,2 C 79 % 1013,1 hPa 0,0 l/m 3,3 km/h (1 Bft) S 1,00 h 0,051 mm 1,5 UV-I 232 W/m 15,5 C 19,2 C 5,8 km/h (2 Bft)
06.07.2014 09:00 21,3 C 70 % 1012,9 hPa 0,0 l/m 6,9 km/h (2 Bft) S 1,00 h 0,152 mm 3,2 UV-I 500 W/m 15,5 C 20,8 C 10,4 km/h (2 Bft)
06.07.2014 10:00 23,2 C 62 % 1012,6 hPa 0,0 l/m 6,3 km/h (2 Bft) S-SO 1,00 h 0,330 mm 4,8 UV-I 718 W/m 15,6 C 22,9 C 9,7 km/h (2 Bft)
06.07.2014 11:00 24,8 C 55 % 1012,3 hPa 0,0 l/m 8,6 km/h (2 Bft) S-SO 1,00 h 0,483 mm 6,6 UV-I 878 W/m 15,1 C 24,2 C 12,9 km/h (3 Bft)
06.07.2014 12:00 25,8 C 52 % 1011,9 hPa 0,0 l/m 7,8 km/h (2 Bft) SO 1,00 h 0,584 mm 6,5 UV-I 723 W/m 15,0 C 25,4 C 12,0 km/h (2 Bft)
06.07.2014 13:00 27,1 C 47 % 1011,4 hPa 0,0 l/m 5,9 km/h (2 Bft) SW 1,00 h 0,508 mm 7,6 UV-I 874 W/m 14,9 C 26,9 C 9,8 km/h (2 Bft)
06.07.2014 14:00 26,9 C 47 % 1011,0 hPa 0,0 l/m 6,0 km/h (2 Bft) SO 1,00 h 0,584 mm 5,0 UV-I 509 W/m 14,8 C 26,8 C 9,9 km/h (2 Bft)
06.07.2014 15:00 27,3 C 46 % 1010,5 hPa 0,0 l/m 6,4 km/h (2 Bft) S-SO 1,00 h 0,381 mm 4,3 UV-I 522 W/m 14,7 C 27,1 C 9,9 km/h (2 Bft)
06.07.2014 16:00 28,2 C 42 % 1010,1 hPa 0,0 l/m 7,7 km/h (2 Bft) SO 1,00 h 0,381 mm 3,5 UV-I 531 W/m 14,2 C 27,9 C 11,5 km/h (2 Bft)
06.07.2014 17:00 28,9 C 39 % 1009,5 hPa 0,0 l/m 6,9 km/h (2 Bft) SO 1,00 h 0,406 mm 2,4 UV-I 413 W/m 13,6 C 28,7 C 10,6 km/h (2 Bft)
06.07.2014 18:00 28,1 C 39 % 1009,2 hPa 0,0 l/m 4,4 km/h (1 Bft) S-SO 0,93 h 0,330 mm 1,1 UV-I 68 W/m 12,7 C 28,0 C 7,3 km/h (2 Bft)
06.07.2014 19:00 27,6 C 41 % 1009,0 hPa 0,0 l/m 4,3 km/h (1 Bft) S 0,00 h 0,102 mm 0,0 UV-I 34 W/m 13,0 C 27,6 C 6,7 km/h (2 Bft)
06.07.2014 20:00 26,5 C 45 % 1008,9 hPa 0,0 l/m 2,4 km/h (1 Bft) O-SO 0,00 h 0,076 mm 0,0 UV-I 19 W/m 13,7 C 26,5 C 4,6 km/h (1 Bft)
06.07.2014 21:00 24,4 C 53 % 1009,1 hPa 0,0 l/m 1,7 km/h (1 Bft) O-SO 0,00 h 0,051 mm 0,0 UV-I 7 W/m 14,3 C 24,4 C 3,4 km/h (1 Bft)
06.07.2014 22:00 22,0 C 63 % 1009,4 hPa 0,0 l/m 1,0 km/h (0 Bft) O-NO 0,00 h 0,025 mm 0,0 UV-I 0 W/m 14,6 C 22,0 C 2,1 km/h (1 Bft)
06.07.2014 23:00 20,5 C 69 % 1010,0 hPa 0,0 l/m 0,6 km/h (0 Bft) NO 0,00 h 0,051 mm 0,0 UV-I 0 W/m 14,6 C 20,5 C 1,6 km/h (1 Bft)
Min-Datum _ 05.07.14 04.07.14 05.07.14 - 30.06.14 - - - - - 02.07.14 01.07.14 30.06.14
_ Min-Zeit 22:13 14:50 03:05 - 00:10 - - - - - 15:22 05:28 00:29
Minimum _ 0,0 C 24 % 1005,9 hPa - 0,0 km/h (0 Bft) - - - - - 3,5 C 5,6 C 0,0 km/h (0 Bft)
Max-Datum _ 04.07.14 30.06.14 03.07.14 30.06.14 05.07.14 - 01.07.14 04.07.14 30.06.14 30.06.14 05.07.14 04.07.14 05.07.14
_ Max-Zeit 16:17 01:08 08:57 14:00 19:07 - 14:09 14:00 12:47 12:44 12:49 16:16 19:07
Maximum _ 29,3 C 97 % 1024,8 hPa 2,4 l/m 30,6 km/h
NW (5 Bft)
- 0,05 h 0,660 mm 8,7 UV-I 1253 W/m 16,8 C 29,2 C 45,1 km/h
N-NW (6 Bft)
Durchschnitt _ 17,5 C 67 % 1015,2 hPa #6,2 l/m 3,9 km/h (1 Bft) S #87:16 h #28,185 mm 3,1 UV-I 327 W/m 10,4 C 17,3 C 6,5 km/h (2 Bft)